Time;durP1;ratioP1;P1;durP2;ratioP2;P2;SDS_P1;SDS_P2;PMS_P1;PMS_P2;Temp;Humidity;BMP_temperature;BMP_pressure;BME280_temperature;BME280_humidity;BME280_pressure;Samples;Min_cycle;Max_cycle;Signal;HPM_P1;HPM_P2
2024/03/29 00:00:04;;;;;;;33.10;6.10;;;;;;;-147.86;100.00;-17609.17;105916;1253;61429;-50
2024/03/29 00:02:39;;;;;;;40.20;6.60;;;;;;;-147.86;100.00;-17609.17;105945;1253;74311;-47
2024/03/29 00:05:07;;;;;;;40.40;7.10;;;;;;;-147.86;100.00;-17609.17;105935;1257;64446;-49
2024/03/29 00:07:34;;;;;;;27.90;5.30;;;;;;;-147.86;100.00;-17609.17;105886;1256;72374;-45
2024/03/29 00:10:00;;;;;;;29.80;4.60;;;;;;;-147.86;100.00;-17518.48;105842;1254;61241;-52
2024/03/29 00:12:27;;;;;;;36.40;5.80;;;;;;;-147.86;100.00;-17197.82;105870;1254;61211;-49
2024/03/29 00:14:56;;;;;;;27.60;5.80;;;;;;;-147.86;100.00;-16804.66;105848;1256;74734;-49
2024/03/29 00:17:23;;;;;;;37.60;5.60;;;;;;;-147.86;100.00;-16239.75;105857;1256;64581;-47
2024/03/29 00:19:50;;;;;;;35.90;6.60;;;;;;;-147.86;100.00;-15547.10;105944;1254;72467;-47
2024/03/29 00:22:17;;;;;;;31.70;5.40;;;;;;;-147.86;100.00;-14791.43;105913;1254;61890;-46
2024/03/29 00:24:44;;;;;;;34.90;5.80;;;;;;;-147.86;100.00;-13810.28;105961;1257;61327;-51
2024/03/29 00:27:11;;;;;;;36.50;6.40;;;;;;;-147.86;100.00;-13080.92;105918;1256;75175;-48
2024/03/29 00:29:39;;;;;;;28.10;5.60;;;;;;;-147.86;100.00;-12582.26;105936;1256;65692;-49
2024/03/29 00:32:06;;;;;;;33.30;6.00;;;;;;;-147.86;100.00;-12259.95;105954;1252;71648;-49
2024/03/29 00:34:34;;;;;;;33.30;5.80;;;;;;;-147.86;100.00;-11911.33;105942;1254;61151;-50
2024/03/29 00:37:01;;;;;;;30.30;6.30;;;;;;;-147.86;100.00;-13089.08;105962;1254;62646;-51
2024/03/29 00:39:27;;;;;;;36.40;5.60;;;;;;;-147.86;100.00;-12674.12;105864;1256;73524;-49
2024/03/29 00:41:54;;;;;;;27.60;5.50;;;;;;;-147.86;100.00;-12076.96;105907;1254;64535;-48
2024/03/29 00:44:21;;;;;;;43.40;6.50;;;;;;;-147.86;100.00;-11335.27;105885;1256;72764;-50
2024/03/29 00:46:48;;;;;;;45.40;6.50;;;;;;;-147.86;100.00;-10323.50;105909;1252;61755;-51
2024/03/29 00:49:15;;;;;;;37.10;6.50;;;;;;;-147.86;100.00;-9271.66;105892;1254;61291;-49
2024/03/29 00:51:42;;;;;;;31.90;6.30;;;;;;;-147.86;100.00;-8137.64;105927;1253;74512;-46
2024/03/29 00:54:08;;;;;;;34.20;6.70;;;;;;;-147.86;100.00;-7145.11;105910;1256;64656;-49
2024/03/29 00:56:35;;;;;;;30.40;6.00;;;;;;;-147.86;100.00;-6182.90;105874;1252;72526;-51
2024/03/29 00:59:02;;;;;;;45.30;5.80;;;;;;;-147.86;100.00;-5277.67;105807;1254;61868;-45
2024/03/29 01:01:29;;;;;;;36.40;6.20;;;;;;;-147.86;100.00;-4485.94;105885;1252;61237;-51
2024/03/29 01:03:56;;;;;;;43.20;6.10;;;;;;;-147.86;100.00;-3468.11;105875;1256;75342;-52
2024/03/29 01:06:23;;;;;;;33.10;5.90;;;;;;;-147.86;100.00;-2547.13;105906;1253;64777;-48
2024/03/29 01:08:50;;;;;;;35.50;6.50;;;;;;;-147.86;100.00;-1379.73;105890;1254;72660;-47
2024/03/29 01:11:17;;;;;;;35.20;7.30;;;;;;;-147.86;100.00;281.47;105909;1254;61981;-46
2024/03/29 01:13:44;;;;;;;34.40;6.00;;;;;;;-147.86;100.00;2202.11;105913;1254;61285;-46
2024/03/29 01:16:11;;;;;;;40.40;6.70;;;;;;;-147.86;100.00;3853.14;105888;1256;74449;-52
2024/03/29 01:18:38;;;;;;;46.30;7.30;;;;;;;-147.86;100.00;5392.83;105898;1256;65556;-48
2024/03/29 01:21:05;;;;;;;32.30;5.90;;;;;;;-147.86;100.00;6865.24;105919;1253;72386;-50
2024/03/29 01:23:32;;;;;;;32.20;6.30;;;;;;;-147.86;100.00;8177.10;105901;1256;61880;-52
2024/03/29 01:25:59;;;;;;;35.20;6.70;;;;;;;-147.86;100.00;9381.55;105934;1254;61241;-50
2024/03/29 01:28:26;;;;;;;43.60;6.80;;;;;;;-147.86;100.00;10254.30;105915;1253;74689;-48
2024/03/29 01:30:53;;;;;;;30.10;5.80;;;;;;;-147.86;100.00;11058.94;105919;1253;63574;-50
2024/03/29 01:33:20;;;;;;;39.40;6.10;;;;;;;-147.86;100.00;11849.80;105952;1254;72609;-47
2024/03/29 01:35:47;;;;;;;41.70;6.30;;;;;;;-147.86;100.00;12762.81;105918;1253;61752;-46
2024/03/29 01:38:14;;;;;;;31.50;6.10;;;;;;;-147.86;100.00;14023.76;105884;1254;61336;-49
2024/03/29 01:40:41;;;;;;;37.20;6.10;;;;;;;-147.86;100.00;14990.50;105952;1256;74512;-45
2024/03/29 01:43:08;;;;;;;33.40;5.90;;;;;;;-147.86;100.00;15983.91;105989;1256;63722;-51
2024/03/29 01:45:39;;;;;;;50.20;7.40;;;;;;;-147.86;100.00;17043.68;105926;1254;72428;-48
2024/03/29 01:48:06;;;;;;;40.50;6.00;;;;;;;-147.86;100.00;17668.61;105936;1254;61167;-50
2024/03/29 01:50:33;;;;;;;36.50;6.80;;;;;;;-147.86;100.00;18753.54;105932;1254;61330;-49
2024/03/29 01:53:00;;;;;;;37.90;6.60;;;;;;;-147.86;100.00;19558.68;105903;1256;74451;-48
2024/03/29 01:55:27;;;;;;;40.10;6.80;;;;;;;-147.86;100.00;20160.44;105773;1254;64721;-48
2024/03/29 01:57:56;;;;;;;39.30;6.20;;;;;;;-147.86;100.00;20573.14;105972;1254;72241;-47
2024/03/29 02:00:23;;;;;;;39.20;6.50;;;;;;;-147.86;100.00;21085.93;105961;1254;61823;-46
2024/03/29 02:02:51;;;;;;;47.70;7.20;;;;;;;-147.86;100.00;21764.98;105725;1253;61270;-49
2024/03/29 02:05:18;;;;;;;41.10;7.50;;;;;;;-147.86;100.00;22260.74;105949;1253;74623;-48
2024/03/29 02:07:48;;;;;;;43.00;6.50;;;;;;;-147.86;100.00;22522.87;105939;1256;65421;-47
2024/03/29 02:10:18;;;;;;;47.60;7.10;;;;;;;-147.86;100.00;22137.59;105938;1256;72619;-51
2024/03/29 02:12:45;;;;;;;45.60;6.00;;;;;;;-147.86;100.00;22908.51;105933;1254;61874;-48
2024/03/29 02:15:18;;;;;;;41.10;6.70;;;;;;;-147.86;100.00;23339.34;105914;1256;61186;-49
2024/03/29 02:17:45;;;;;;;39.40;7.00;;;;;;;-147.86;100.00;23029.18;105906;1256;74568;-47
2024/03/29 02:20:12;;;;;;;28.90;7.20;;;;;;;-147.86;100.00;23957.69;105953;1254;64699;-49
2024/03/29 02:22:57;;;;;;;41.90;6.60;;;;;;;-147.86;100.00;23263.46;105924;1254;73148;-47
2024/03/29 02:25:25;;;;;;;42.80;6.40;;;;;;;-147.86;100.00;24422.93;105917;1253;61944;-47
2024/03/29 02:27:51;;;;;;;37.70;7.50;;;;;;;-147.86;100.00;25574.70;105980;1254;61227;-48
2024/03/29 02:30:18;;;;;;;46.90;6.80;;;;;;;-147.86;100.00;26004.68;105951;1252;74487;-48
2024/03/29 02:32:46;;;;;;;36.90;6.60;;;;;;;-147.86;100.00;26459.66;105938;1253;65550;-47
2024/03/29 02:35:14;;;;;;;39.40;7.10;;;;;;;-147.86;100.00;26784.89;105911;1255;72507;-51
2024/03/29 02:37:41;;;;;;;32.00;6.60;;;;;;;-147.86;100.00;27175.62;105935;1253;61933;-47
2024/03/29 02:40:08;;;;;;;43.00;7.20;;;;;;;-147.86;100.00;27724.32;105877;1252;61256;-52
2024/03/29 02:42:36;;;;;;;38.50;6.30;;;;;;;-147.86;100.00;28117.93;105904;1254;74738;-45
2024/03/29 02:45:04;;;;;;;42.60;6.60;;;;;;;-147.86;100.00;28640.63;105942;1254;64523;-50
2024/03/29 02:47:32;;;;;;;48.80;6.10;;;;;;;-147.86;100.00;28855.70;105903;1254;72506;-47
2024/03/29 02:49:59;;;;;;;42.10;6.20;;;;;;;-147.86;100.00;29546.97;105876;1252;61709;-51
2024/03/29 02:52:26;;;;;;;42.00;7.00;;;;;;;-147.86;100.00;30025.79;105919;1253;61224;-46
2024/03/29 02:54:52;;;;;;;39.80;7.30;;;;;;;-147.86;100.00;30428.94;105872;1254;74361;-48
2024/03/29 02:57:19;;;;;;;32.30;5.60;;;;;;;-147.86;100.00;30685.37;105899;1253;64408;-49
2024/03/29 02:59:46;;;;;;;50.50;7.50;;;;;;;-147.86;100.00;30787.25;105895;1256;72585;-45
2024/03/29 03:02:13;;;;;;;59.80;9.20;;;;;;;-147.86;100.00;30994.13;105845;1253;61659;-46
2024/03/29 03:04:39;;;;;;;45.50;8.10;;;;;;;-147.86;100.00;31262.33;105889;1254;61340;-50
2024/03/29 03:12:39;;;;;;;53.50;7.40;;;;;;;-147.86;100.00;30017.72;105957;1254;72675;-46
2024/03/29 03:15:06;;;;;;;62.20;7.10;;;;;;;-147.86;100.00;31558.28;105942;1253;61928;-51
2024/03/29 03:17:34;;;;;;;50.70;7.50;;;;;;;-147.86;100.00;31463.07;105920;1252;61227;-49
2024/03/29 03:20:00;;;;;;;47.20;7.40;;;;;;;-147.86;100.00;31594.20;105860;1253;74366;-46
2024/03/29 03:22:27;;;;;;;49.30;8.20;;;;;;;-147.86;100.00;31587.19;105865;1254;64608;-48
2024/03/29 03:24:54;;;;;;;55.80;8.50;;;;;;;-147.86;100.00;31586.40;105869;1254;72559;-48
2024/03/29 03:27:23;;;;;;;45.30;6.80;;;;;;;-147.86;100.00;31516.54;105922;1254;61227;-48
2024/03/29 03:29:51;;;;;;;32.40;6.30;;;;;;;-147.86;100.00;31261.69;105958;1253;61237;-48
2024/03/29 03:32:18;;;;;;;38.60;6.40;;;;;;;-147.86;100.00;31206.27;105874;1254;73708;-51
2024/03/29 03:34:45;;;;;;;44.70;7.10;;;;;;;-147.86;100.00;31246.41;105894;1254;65366;-52
2024/03/29 03:37:12;;;;;;;46.20;6.10;;;;;;;-147.86;100.00;31158.60;105902;1252;71605;-49
2024/03/29 03:39:39;;;;;;;43.80;7.30;;;;;;;-147.86;100.00;31212.46;105863;1254;61854;-49
2024/03/29 03:42:06;;;;;;;46.20;7.50;;;;;;;-147.86;100.00;31177.79;105888;1254;61240;-47
2024/03/29 03:44:33;;;;;;;52.80;6.80;;;;;;;-147.86;100.00;31362.01;105883;1256;74683;-50
2024/03/29 03:47:01;;;;;;;38.80;6.10;;;;;;;-147.86;100.00;31420.57;105925;1254;65504;-50
2024/03/29 03:49:28;;;;;;;44.50;7.40;;;;;;;-147.86;100.00;31228.58;105969;1254;72648;-49
2024/03/29 03:51:55;;;;;;;39.40;7.50;;;;;;;-147.86;100.00;31209.76;105922;1256;61155;-49
2024/03/29 03:54:21;;;;;;;39.50;7.20;;;;;;;-147.86;100.00;30882.68;105887;1254;61269;-47
2024/03/29 03:56:48;;;;;;;36.50;7.20;;;;;;;-147.86;100.00;30632.12;105913;1257;74503;-49
2024/03/29 03:59:15;;;;;;;38.10;7.20;;;;;;;-147.86;100.00;30367.88;105927;1256;65522;-49
2024/03/29 04:01:42;;;;;;;46.60;8.20;;;;;;;-147.86;100.00;29877.36;105930;1254;72588;-47
2024/03/29 04:04:09;;;;;;;41.80;7.20;;;;;;;-147.86;100.00;29378.33;105910;1254;62008;-45
2024/03/29 04:06:35;;;;;;;39.00;6.60;;;;;;;-147.86;100.00;28959.72;105866;1252;61157;-46
2024/03/29 04:09:03;;;;;;;37.30;6.70;;;;;;;-147.86;100.00;28563.01;105629;1256;352157;-46
2024/03/29 04:13:43;;;;;;;37.10;7.90;;;;;;;-147.86;100.00;29031.63;102926;1286;602908;-46
2024/03/29 04:16:09;;;;;;;50.40;11.60;;;;;;;-147.86;100.00;15844.34;105210;1269;60308;-47
2024/03/29 04:18:36;;;;;;;51.80;10.70;;;;;;;-147.86;100.00;15961.65;105191;1264;60093;-47
2024/03/29 04:21:03;;;;;;;39.40;8.90;;;;;;;-147.86;100.00;14421.37;105215;1268;73054;-47
2024/03/29 04:23:30;;;;;;;37.40;8.60;;;;;;;-147.86;100.00;13656.83;105223;1264;65328;-48
2024/03/29 04:25:58;;;;;;;38.00;7.80;;;;;;;-147.86;100.00;13868.19;104956;1266;335847;-46
2024/03/29 04:28:25;;;;;;;45.10;8.40;;;;;;;-147.86;100.00;14602.02;105259;1265;60356;-47
2024/03/29 04:30:57;;;;;;;45.70;7.00;;;;;;;-147.86;100.00;15399.78;105201;1262;60212;-50
2024/03/29 04:33:24;;;;;;;33.40;7.10;;;;;;;-147.86;100.00;16142.07;105837;1255;72045;-48
2024/03/29 04:35:58;;;;;;;32.40;6.70;;;;;;;-147.86;100.00;16668.31;105820;1257;65433;-47
2024/03/29 04:38:26;;;;;;;52.60;8.30;;;;;;;-147.86;100.00;17068.89;105849;1256;71711;-51
2024/03/29 04:40:54;;;;;;;35.60;7.90;;;;;;;-147.86;100.00;17434.65;105857;1256;60425;-50
2024/03/29 04:43:22;;;;;;;39.10;6.80;;;;;;;-147.86;100.00;17704.30;105859;1254;60983;-50
2024/03/29 04:45:49;;;;;;;37.40;7.60;;;;;;;-147.86;100.00;18011.71;105857;1256;73829;-50
2024/03/29 04:48:15;;;;;;;40.20;7.10;;;;;;;-147.86;100.00;18493.42;105866;1256;64425;-48
2024/03/29 04:50:42;;;;;;;34.10;8.40;;;;;;;-147.86;100.00;18852.65;105845;1254;71484;-49
2024/03/29 04:53:09;;;;;;;46.90;7.70;;;;;;;-147.86;100.00;19327.11;105827;1256;60393;-50
2024/03/29 04:55:36;;;;;;;45.70;8.60;;;;;;;-147.86;100.00;19938.68;105897;1253;60596;-50
2024/03/29 04:58:04;;;;;;;40.40;7.10;;;;;;;-147.86;100.00;20659.65;105993;1254;72460;-51
2024/03/29 05:00:31;;;;;;;39.40;8.40;;;;;;;-147.86;100.00;21065.41;105801;1256;64601;-51
2024/03/29 05:02:57;;;;;;;36.90;6.90;;;;;;;-147.86;100.00;21488.33;105747;1257;72606;-50
2024/03/29 05:05:24;;;;;;;40.70;7.20;;;;;;;-147.86;100.00;21952.95;105772;1258;60369;-51
2024/03/29 05:07:51;;;;;;;35.10;6.70;;;;;;;-147.86;100.00;22335.10;105764;1254;60437;-49
2024/03/29 05:10:18;;;;;;;37.80;7.80;;;;;;;-147.86;100.00;22367.75;105771;1254;74368;-51
2024/03/29 05:12:45;;;;;;;35.30;6.90;;;;;;;-147.86;100.00;21844.99;105746;1253;63424;-48
2024/03/29 05:15:12;;;;;;;33.80;6.60;;;;;;;-147.86;100.00;20545.90;105695;1258;72490;-51
2024/03/29 05:17:41;;;;;;;32.70;7.20;;;;;;;-147.86;100.00;19150.42;105683;1257;60419;-56
2024/03/29 05:20:08;;;;;;;30.20;7.60;;;;;;;-147.86;100.00;16619.71;105749;1254;61092;-50
2024/03/29 05:22:35;;;;;;;42.10;8.70;;;;;;;-147.86;100.00;14580.99;105737;1259;72731;-47
2024/03/29 05:25:03;;;;;;;52.20;8.10;;;;;;;-147.86;100.00;11817.27;105676;1259;65308;-47
2024/03/29 05:27:30;;;;;;;48.50;7.50;;;;;;;-147.86;100.00;9265.32;105736;1259;72594;-45
2024/03/29 05:29:59;;;;;;;43.10;8.10;;;;;;;-147.86;100.00;7334.47;105626;1257;61916;-48
2024/03/29 05:32:26;;;;;;;39.20;7.60;;;;;;;-147.86;100.00;5084.77;105676;1254;60500;-47
2024/03/29 05:34:52;;;;;;;32.40;7.80;;;;;;;-147.86;100.00;3603.70;105656;1258;73858;-48
2024/03/29 05:37:19;;;;;;;34.70;8.50;;;;;;;-147.86;100.00;1697.46;105673;1260;65425;-45
2024/03/29 05:39:47;;;;;;;35.00;7.70;;;;;;;-147.86;100.00;495.07;105650;1257;72545;-47
2024/03/29 05:42:15;;;;;;;43.60;8.00;;;;;;;-147.86;100.00;-1012.41;105652;1258;60808;-47
2024/03/29 05:44:41;;;;;;;32.60;7.60;;;;;;;-147.86;100.00;-2494.61;105624;1257;60463;-47
2024/03/29 05:47:09;;;;;;;38.80;8.10;;;;;;;-147.86;100.00;-4344.08;105611;1259;73876;-51
2024/03/29 05:49:36;;;;;;;38.00;7.80;;;;;;;-147.86;100.00;-6170.61;105637;1259;65425;-48
2024/03/29 05:52:03;;;;;;;38.30;8.70;;;;;;;-147.86;100.00;-7619.06;105597;1257;73037;-51
2024/03/29 05:54:30;;;;;;;32.00;7.30;;;;;;;-147.86;100.00;-9792.50;105639;1259;60336;-46
2024/03/29 05:56:57;;;;;;;33.50;8.00;;;;;;;-147.86;100.00;-12312.88;105663;1255;60427;-46
2024/03/29 05:59:24;;;;;;;29.10;6.70;;;;;;;-147.86;100.00;-14560.02;105669;1258;72831;-50
2024/03/29 06:01:51;;;;;;;42.80;7.60;;;;;;;-147.86;100.00;-16077.81;105659;1257;65518;-46
2024/03/29 06:04:24;;;;;;;29.30;7.80;;;;;;;-147.86;100.00;-16918.03;105688;1259;72466;-47
2024/03/29 06:06:53;;;;;;;;;;;;;;;-147.86;100.00;-17609.17;105678;1257;60404;-50
2024/03/29 06:09:21;;;;;;;46.10;8.80;;;;;;;-147.86;100.00;-17609.17;105690;1259;60414;-49
2024/03/29 06:11:47;;;;;;;34.40;8.30;;;;;;;-147.86;100.00;-17609.17;105683;1258;73865;-51
2024/03/29 06:19:46;;;;;;;45.00;7.70;;;;;;;-147.86;100.00;-17609.17;105916;1255;60421;-51
2024/03/29 06:22:13;;;;;;;39.30;7.60;;;;;;;-147.86;100.00;-17609.17;105919;1257;60329;-46
2024/03/29 06:24:43;;;;;;;47.90;8.10;;;;;;;-147.86;100.00;-17609.17;105907;1253;73702;-44
2024/03/29 06:27:10;;;;;;;47.00;8.30;;;;;;;-147.86;100.00;-17609.17;105916;1257;64335;-48
2024/03/29 06:29:37;;;;;;;35.00;7.30;;;;;;;-147.86;100.00;-17609.17;105919;1254;72490;-49
2024/03/29 06:32:04;;;;;;;41.80;7.70;;;;;;;-147.86;100.00;-17609.17;105917;1255;61897;-50
2024/03/29 06:34:31;;;;;;;43.80;7.60;;;;;;;-147.86;100.00;-17609.17;105757;1256;60531;-49
2024/03/29 06:36:58;;;;;;;37.50;8.00;;;;;;;-147.86;100.00;-17609.17;105738;1257;75178;-50
2024/03/29 06:39:26;;;;;;;43.70;7.80;;;;;;;-147.86;100.00;-17609.17;105920;1256;65927;-50
2024/03/29 06:41:52;;;;;;;44.40;7.60;;;;;;;-147.86;100.00;-17609.17;105917;1254;73831;-51
2024/03/29 06:44:19;;;;;;;28.40;7.50;;;;;;;-147.86;100.00;-17609.17;105924;1257;61633;-47
2024/03/29 06:46:46;;;;;;;34.60;7.50;;;;;;;-147.86;100.00;-17609.17;105848;1254;60683;-49
2024/03/29 06:49:13;;;;;;;29.20;6.90;;;;;;;-147.86;100.00;-17609.17;105914;1253;74051;-47
2024/03/29 06:51:40;;;;;;;37.40;7.00;;;;;;;-147.86;100.00;-17609.17;105936;1256;64414;-48
2024/03/29 06:54:07;;;;;;;30.90;7.40;;;;;;;-147.86;100.00;-17609.17;105808;1254;73882;-45
2024/03/29 06:56:34;;;;;;;30.20;7.30;;;;;;;-147.86;100.00;-17609.17;105858;1264;61624;-51
2024/03/29 06:59:01;;;;;;;40.90;7.90;;;;;;;-147.86;100.00;-17609.17;105899;1256;60460;-47
2024/03/29 07:01:29;;;;;;;35.50;7.90;;;;;;;-147.86;100.00;-17609.17;105913;1255;73667;-46
2024/03/29 07:03:56;;;;;;;33.80;7.30;;;;;;;-147.86;100.00;-17609.17;105918;1255;64709;-46
2024/03/29 07:06:23;;;;;;;26.20;6.20;;;;;;;-147.86;100.00;-17609.17;105920;1256;73064;-51
2024/03/29 07:08:50;;;;;;;38.10;6.90;;;;;;;-147.86;100.00;-17609.17;105870;1256;60341;-47
2024/03/29 07:11:16;;;;;;;33.40;7.50;;;;;;;-147.86;100.00;-17609.17;105852;1253;60420;-49
2024/03/29 07:13:43;;;;;;;42.80;7.70;;;;;;;-147.86;100.00;-17609.17;105935;1256;75100;-52
2024/03/29 07:16:10;;;;;;;34.40;6.90;;;;;;;-147.86;100.00;-17609.17;105920;1257;65516;-49
2024/03/29 07:18:37;;;;;;;34.80;6.90;;;;;;;-147.86;100.00;-17609.17;105869;1254;72537;-47
2024/03/29 07:21:04;;;;;;;31.60;7.60;;;;;;;-147.86;100.00;-17609.17;105915;1254;60767;-49
2024/03/29 07:23:31;;;;;;;33.70;5.70;;;;;;;-147.86;100.00;-17609.17;105947;1251;61732;-47
2024/03/29 07:25:59;;;;;;;35.60;7.50;;;;;;;-147.86;100.00;-17609.17;105861;1256;74197;-52
2024/03/29 07:28:27;;;;;;;32.10;7.80;;;;;;;-147.86;100.00;-17609.17;105788;1254;65056;-51
2024/03/29 07:30:54;;;;;;;45.50;8.00;;;;;;;-147.86;100.00;-17609.17;105938;1256;72613;-51
2024/03/29 07:33:23;;;;;;;65.20;8.30;;;;;;;-147.86;100.00;-17609.17;105927;1258;60419;-45
2024/03/29 07:35:50;;;;;;;42.50;7.50;;;;;;;-147.86;100.00;-17609.17;105939;1255;61323;-51
2024/03/29 07:38:17;;;;;;;34.10;7.10;;;;;;;-147.86;100.00;-17609.17;105928;1256;75236;-52
2024/03/29 07:40:44;;;;;;;36.20;6.90;;;;;;;-147.86;100.00;-17609.17;105877;1255;66376;-46
2024/03/29 07:43:13;;;;;;;29.60;7.30;;;;;;;-147.86;100.00;-17609.17;105874;1257;74159;-50
2024/03/29 07:45:44;;;;;;;30.80;7.50;;;;;;;-147.86;100.00;-17609.17;105912;1257;61424;-52
2024/03/29 07:48:13;;;;;;;27.90;6.20;;;;;;;-147.86;100.00;-17609.17;105907;1256;61539;-49
2024/03/29 07:50:40;;;;;;;26.70;6.60;;;;;;;-147.86;100.00;-17609.17;105924;1257;73675;-48
2024/03/29 07:53:07;;;;;;;26.10;6.70;;;;;;;-147.86;100.00;-17609.17;105956;1256;65814;-50
2024/03/29 07:55:35;;;;;;;23.10;6.50;;;;;;;-147.86;100.00;-17609.17;105920;1256;73936;-46
2024/03/29 07:58:03;;;;;;;27.00;6.30;;;;;;;-147.86;100.00;-17609.17;105915;1257;61653;-52
2024/03/29 08:00:33;;;;;;;23.00;6.50;;;;;;;-147.86;100.00;-17609.17;105946;1256;61481;-49
2024/03/29 08:03:00;;;;;;;24.60;7.10;;;;;;;-147.86;100.00;-17609.17;105911;1251;74888;-50
2024/03/29 08:05:27;;;;;;;27.70;8.20;;;;;;;-147.86;100.00;-17609.17;105975;1256;65615;-52
2024/03/29 08:07:54;;;;;;;31.10;7.60;;;;;;;-147.86;100.00;-17609.17;105929;1256;73811;-52
2024/03/29 08:10:21;;;;;;;28.80;7.40;;;;;;;-147.86;100.00;-17609.17;105898;1256;61766;-49
2024/03/29 08:12:48;;;;;;;25.60;7.80;;;;;;;-147.86;100.00;-17609.17;105927;1254;61596;-52
2024/03/29 08:15:17;;;;;;;31.50;7.10;;;;;;;-147.86;100.00;-17609.17;105891;1256;75058;-49
2024/03/29 08:17:47;;;;;;;21.00;6.40;;;;;;;-147.86;100.00;-17609.17;105905;1258;65938;-50
2024/03/29 08:20:14;;;;;;;28.70;6.30;;;;;;;-147.86;100.00;-17609.17;105910;1255;74059;-51
2024/03/29 08:22:41;;;;;;;35.00;7.20;;;;;;;-147.86;100.00;-17609.17;105818;1255;61613;-50
2024/03/29 08:25:08;;;;;;;22.70;7.20;;;;;;;-147.86;100.00;-17609.17;105870;1254;62142;-51
2024/03/29 08:27:35;;;;;;;20.20;5.60;;;;;;;-147.86;100.00;-17609.17;105964;1254;74477;-50
2024/03/29 08:30:03;;;;;;;28.90;7.50;;;;;;;-147.86;100.00;-17609.17;105879;1256;65967;-46
2024/03/29 10:07:20;;;;;;;11.90;3.90;;;;;;;-147.86;65.93;50789.32;105758;1258;61756;-51
2024/03/29 10:09:50;;;;;;;23.00;7.10;;;;;;;-147.86;64.63;50847.78;105784;1251;61571;-54
2024/03/29 10:12:18;;;;;;;15.20;4.10;;;;;;;-147.86;64.12;50867.79;105905;1254;73692;-58
2024/03/29 10:14:49;;;;;;;21.40;3.20;;;;;;;-147.86;63.02;50871.71;105905;1256;65836;-54
2024/03/29 10:17:17;;;;;;;16.30;3.00;;;;;;;-147.86;65.36;50826.20;105922;1254;74049;-47
2024/03/29 10:19:45;;;;;;;7.50;2.60;;;;;;;-147.86;70.72;50801.88;105924;1255;61333;-51
2024/03/29 10:22:12;;;;;;;8.70;2.60;;;;;;;-147.86;70.97;50758.72;105899;1254;61330;-50
2024/03/29 10:24:39;;;;;;;8.20;1.80;;;;;;;-147.86;70.03;50719.09;105905;1251;76219;-49
2024/03/29 10:27:07;;;;;;;9.50;4.20;;;;;;;-147.86;72.54;50691.24;105868;1254;65962;-55
2024/03/29 10:29:34;;;;;;;17.10;6.40;;;;;;;-147.86;73.72;50639.85;105705;1251;73999;-53
2024/03/29 10:32:01;;;;;;;21.50;10.20;;;;;;;-147.86;76.05;50611.21;105886;1257;61590;-52
2024/03/29 10:34:33;;;;;;;23.70;8.70;;;;;;;-147.86;79.99;50625.33;105937;1251;61250;-52
2024/03/29 10:37:04;;;;;;;28.30;12.20;;;;;;;-147.86;82.02;50624.55;105935;1256;75799;-46
2024/03/29 10:39:33;;;;;;;40.80;19.20;;;;;;;-147.86;82.76;50642.20;105947;1256;65970;-52
2024/03/29 10:42:00;;;;;;;30.80;11.60;;;;;;;-147.86;80.15;50602.18;105936;1251;74253;-49
2024/03/29 10:44:28;;;;;;;29.60;12.60;;;;;;;-147.86;76.09;50595.12;105708;1258;61475;-50
2024/03/29 10:46:57;;;;;;;25.90;7.90;;;;;;;-147.86;76.72;50633.96;105916;1257;61270;-51
2024/03/29 10:49:24;;;;;;;40.00;16.50;;;;;;;-147.86;74.73;50692.42;105964;1256;76059;-52
2024/03/29 10:51:51;;;;;;;15.40;4.90;;;;;;;-147.86;75.90;50816.79;105958;1256;65952;-52
2024/03/29 10:54:18;;;;;;;11.40;3.70;;;;;;;-147.86;71.21;50908.99;105698;1254;73776;-52
2024/03/29 10:56:47;;;;;;;16.70;4.30;;;;;;;-147.86;65.87;50971.76;105927;1256;61505;-52
2024/03/29 10:59:29;;;;;;;13.30;2.90;;;;;;;-147.86;65.63;51041.60;105945;1255;61103;-52
2024/03/29 11:01:59;;;;;;;11.50;2.70;;;;;;;-147.86;61.51;51056.90;105733;1257;75567;-49
2024/03/29 11:04:34;;;;;;;7.20;2.70;;;;;;;-147.86;60.90;51049.84;105703;1251;66996;-50
2024/03/29 11:07:02;;;;;;;;;;;;;;;-147.86;60.79;51074.16;105997;1254;73056;-45
2024/03/29 11:09:30;;;;;;;16.60;3.80;;;;;;;-147.86;60.74;51080.84;105918;1256;61665;-49
2024/03/29 11:11:58;;;;;;;10.00;3.00;;;;;;;-147.86;59.62;51069.46;106100;1255;61315;-53
2024/03/29 11:14:39;;;;;;;21.70;2.30;;;;;;;-147.86;57.54;51036.50;105976;1251;74743;-46
2024/03/29 11:17:07;;;;;;;11.80;2.40;;;;;;;-147.86;51.36;50896.43;105910;1256;66124;-50
2024/03/29 11:19:34;;;;;;;11.90;4.60;;;;;;;-147.86;51.31;50804.63;105948;1251;74126;-46
2024/03/29 11:22:01;;;;;;;42.10;13.30;;;;;;;-147.86;51.44;50735.97;105911;1256;61778;-47
2024/03/29 11:24:29;;;;;;;117.30;44.70;;;;;;;-147.86;52.49;50674.76;105951;1251;61920;-50
2024/03/29 11:26:55;;;;;;;40.20;16.00;;;;;;;-147.86;57.00;50672.80;105902;1252;75752;-50
2024/03/29 11:29:24;;;;;;;16.70;4.80;;;;;;;-147.86;62.44;50666.13;105923;1255;66707;-47
2024/03/29 11:31:57;;;;;;;10.30;3.50;;;;;;;-147.86;65.31;50628.87;105944;1256;71478;-50
2024/03/29 11:34:24;;;;;;;10.70;3.80;;;;;;;-147.86;66.63;50614.35;105921;1254;61454;-51
2024/03/29 11:36:51;;;;;;;24.90;5.40;;;;;;;-147.86;66.58;50602.97;105918;1254;61502;-52
2024/03/29 11:39:22;;;;;;;22.20;4.60;;;;;;;-147.86;65.06;50591.20;105912;1251;75946;-46
2024/03/29 11:41:50;;;;;;;52.70;18.30;;;;;;;-147.86;62.91;50586.10;105893;1253;64797;-50
2024/03/29 11:44:17;;;;;;;37.50;13.60;;;;;;;-147.86;63.45;50600.23;105899;1254;73964;-52
2024/03/29 11:46:44;;;;;;;29.50;10.40;;;;;;;-147.86;62.37;50584.92;105872;1255;63779;-50
2024/03/29 11:49:11;;;;;;;10.60;4.60;;;;;;;-147.86;60.76;50570.41;105927;1254;61791;-51
2024/03/29 11:51:38;;;;;;;18.90;6.70;;;;;;;-147.86;60.75;50593.95;105769;1257;75884;-50
2024/03/29 11:54:05;;;;;;;23.60;8.80;;;;;;;-147.86;59.36;50613.95;105925;1254;65860;-48
2024/03/29 11:56:32;;;;;;;19.50;4.60;;;;;;;-147.86;59.18;50606.89;105898;1251;73823;-54
2024/03/29 11:59:00;;;;;;;32.40;10.60;;;;;;;-147.86;58.77;50602.58;105958;1256;61742;-48
2024/03/29 12:01:29;;;;;;;25.50;11.60;;;;;;;-147.86;58.83;50605.32;105914;1252;61405;-49
2024/03/29 12:03:56;;;;;;;10.00;4.40;;;;;;;-147.86;58.59;50590.41;105965;1253;75883;-44
2024/03/29 12:06:23;;;;;;;12.40;3.60;;;;;;;-147.86;58.32;50570.41;105890;1256;66733;-54
2024/03/29 12:08:50;;;;;;;25.70;6.90;;;;;;;-147.86;58.70;50561.78;106002;1253;74091;-52
2024/03/29 12:11:17;;;;;;;32.20;10.20;;;;;;;-147.86;58.79;50563.74;105911;1256;61519;-51
2024/03/29 12:13:46;;;;;;;21.10;6.00;;;;;;;-147.86;59.19;50590.02;105947;1254;61321;-52
2024/03/29 12:16:13;;;;;;;20.60;3.80;;;;;;;-147.86;59.22;50619.45;105818;1256;76064;-51
2024/03/29 12:18:40;;;;;;;73.10;20.20;;;;;;;-147.86;59.56;50624.16;105904;1255;66748;-48
2024/03/29 12:21:09;;;;;;;24.00;5.90;;;;;;;-147.86;62.02;50656.71;105847;1252;73803;-47
2024/03/29 12:23:35;;;;;;;65.60;6.20;;;;;;;-147.86;79.15;50765.78;105930;1255;61329;-49
2024/03/29 12:38:13;;;;;;;3.70;1.10;;;;;;;-147.86;100.00;-4211.90;103284;1283;617142;-57
2024/03/29 12:40:42;;;;;;;0.80;0.40;;;;;;;-147.86;100.00;-17609.17;104811;1269;158399;-51
2024/03/29 12:43:11;;;;;;;4.30;0.80;;;;;;;-147.86;100.00;-17609.17;105227;1264;59634;-53
2024/03/29 12:45:41;;;;;;;4.40;0.90;;;;;;;-147.86;100.00;-17426.63;105216;1262;73131;-49
2024/03/29 12:48:15;;;;;;;2.60;0.70;;;;;;;-147.86;100.00;-14059.58;105101;1265;65993;-52
2024/03/29 12:50:43;;;;;;;3.10;1.00;;;;;;;-147.86;100.00;-7597.90;105140;1263;73831;-54
2024/03/29 12:53:12;;;;;;;1.90;0.90;;;;;;;-147.86;100.00;-937.73;105153;1267;63186;-53
2024/03/29 12:55:46;;;;;;;2.90;0.60;;;;;;;-147.86;100.00;4214.02;105148;1263;60585;-53